Time;durP1;ratioP1;P1;durP2;ratioP2;P2;SDS_P1;SDS_P2;PMS_P1;PMS_P2;Temp;Humidity;BMP_temperature;BMP_pressure;BME280_temperature;BME280_humidity;BME280_pressure;Samples;Min_cycle;Max_cycle;Signal;HPM_P1;HPM_P2
2021/07/11 00:01:02;;;;;;;2.83;1.77;;;;;;;;;;5075639;28;20051;-69
2021/07/11 00:03:30;;;;;;;3.35;1.83;;;;;;;;;;5075126;28;20500;-70
2021/07/11 00:05:57;;;;;;;4.60;2.15;;;;;;;;;;5075658;28;20055;-70
2021/07/11 00:08:23;;;;;;;3.40;2.03;;;;;;;;;;5075219;28;20041;-70
2021/07/11 00:10:50;;;;;;;4.65;2.00;;;;;;;;;;5075348;28;20048;-70
2021/07/11 00:13:16;;;;;;;6.18;2.80;;;;;;;;;;5072380;28;20060;-69
2021/07/11 00:15:43;;;;;;;3.88;1.92;;;;;;;;;;5074094;28;20051;-69
2021/07/11 00:18:11;;;;;;;3.58;2.08;;;;;;;;;;5075328;28;20037;-70
2021/07/11 00:20:39;;;;;;;6.28;2.20;;;;;;;;;;5072231;28;20051;-71
2021/07/11 00:23:05;;;;;;;2.85;2.10;;;;;;;;;;5075118;28;20067;-70
2021/07/11 00:25:32;;;;;;;5.68;2.55;;;;;;;;;;5075289;28;20040;-71
2021/07/11 00:27:58;;;;;;;3.90;2.15;;;;;;;;;;5069879;28;20500;-70
2021/07/11 00:30:26;;;;;;;6.15;2.25;;;;;;;;;;5073978;28;20058;-71
2021/07/11 00:32:54;;;;;;;4.57;2.20;;;;;;;;;;5073435;28;20131;-71
2021/07/11 00:35:21;;;;;;;4.75;2.10;;;;;;;;;;5070130;28;20044;-71
2021/07/11 00:37:49;;;;;;;7.40;2.67;;;;;;;;;;5073286;28;20041;-71
2021/07/11 00:40:17;;;;;;;3.85;2.30;;;;;;;;;;5073194;28;20044;-70
2021/07/11 00:42:44;;;;;;;3.35;2.08;;;;;;;;;;5072447;28;20051;-70
2021/07/11 00:45:12;;;;;;;4.00;2.40;;;;;;;;;;5072878;28;20072;-70
2021/07/11 00:47:40;;;;;;;4.65;2.40;;;;;;;;;;5070527;28;20393;-69
2021/07/11 00:50:09;;;;;;;7.10;2.40;;;;;;;;;;5073223;28;20421;-69
2021/07/11 00:52:35;;;;;;;5.10;2.20;;;;;;;;;;5073336;28;20045;-69
2021/07/11 00:55:04;;;;;;;4.53;2.30;;;;;;;;;;5072882;28;20044;-70
2021/07/11 00:57:30;;;;;;;4.30;2.58;;;;;;;;;;5072674;28;20044;-69
2021/07/11 00:59:57;;;;;;;3.00;2.00;;;;;;;;;;5073066;28;20044;-68
2021/07/11 01:02:26;;;;;;;3.33;2.20;;;;;;;;;;5072775;28;20050;-68
2021/07/11 01:04:56;;;;;;;3.60;2.10;;;;;;;;;;5073151;28;20048;-68
2021/07/11 01:07:26;;;;;;;3.72;2.08;;;;;;;;;;5072776;28;20056;-68
2021/07/11 01:09:56;;;;;;;3.78;2.33;;;;;;;;;;5073508;28;20044;-68
2021/07/11 01:12:26;;;;;;;3.22;2.00;;;;;;;;;;5072971;28;20045;-68
2021/07/11 01:14:54;;;;;;;3.05;1.90;;;;;;;;;;5072714;28;20053;-68
2021/07/11 01:17:24;;;;;;;4.82;2.00;;;;;;;;;;5072786;28;20053;-67
2021/07/11 01:20:02;;;;;;;3.25;2.08;;;;;;;;;;5072874;28;20381;-67
2021/07/11 01:22:31;;;;;;;3.60;2.00;;;;;;;;;;5072756;28;20447;-68
2021/07/11 01:25:01;;;;;;;3.53;1.70;;;;;;;;;;5072066;28;20056;-68
2021/07/11 01:27:30;;;;;;;4.95;2.28;;;;;;;;;;5072180;28;20074;-68
2021/07/11 01:29:58;;;;;;;4.55;2.05;;;;;;;;;;5072698;28;20139;-68
2021/07/11 01:32:26;;;;;;;3.80;1.90;;;;;;;;;;5072680;28;20151;-68
2021/07/11 01:34:52;;;;;;;5.43;2.10;;;;;;;;;;5072346;28;20045;-69
2021/07/11 01:37:19;;;;;;;6.03;2.50;;;;;;;;;;5072616;28;20389;-69
2021/07/11 01:39:46;;;;;;;3.00;1.80;;;;;;;;;;5072408;28;20058;-69
2021/07/11 01:42:13;;;;;;;2.58;1.50;;;;;;;;;;5072291;28;20058;-69
2021/07/11 01:44:42;;;;;;;2.38;1.40;;;;;;;;;;5072228;28;20048;-69
2021/07/11 01:47:09;;;;;;;3.00;1.40;;;;;;;;;;5072424;28;20428;-69
2021/07/11 01:49:36;;;;;;;3.95;1.58;;;;;;;;;;5072412;28;20054;-69
2021/07/11 01:52:04;;;;;;;3.30;1.60;;;;;;;;;;5072180;28;20047;-69
2021/07/11 01:54:31;;;;;;;3.15;1.65;;;;;;;;;;5071862;28;20049;-69
2021/07/11 01:56:59;;;;;;;2.28;1.60;;;;;;;;;;5072257;28;20044;-69
2021/07/11 01:59:25;;;;;;;4.72;1.60;;;;;;;;;;5071803;28;20052;-69
2021/07/11 02:01:53;;;;;;;3.47;1.33;;;;;;;;;;5072156;28;20049;-69
2021/07/11 02:04:21;;;;;;;2.72;1.55;;;;;;;;;;5071825;28;20094;-69
2021/07/11 02:06:47;;;;;;;1.75;1.15;;;;;;;;;;5072100;28;20504;-71
2021/07/11 02:09:14;;;;;;;2.08;1.35;;;;;;;;;;5072549;28;20040;-70
2021/07/11 02:11:41;;;;;;;1.98;1.10;;;;;;;;;;5071586;28;20055;-70
2021/07/11 02:14:13;;;;;;;2.22;1.23;;;;;;;;;;5071794;28;20407;-70
2021/07/11 02:16:43;;;;;;;2.80;1.40;;;;;;;;;;5071620;28;20048;-70
2021/07/11 02:19:11;;;;;;;2.20;1.30;;;;;;;;;;5071858;28;20044;-70
2021/07/11 02:21:39;;;;;;;2.40;1.20;;;;;;;;;;5072049;28;20061;-70
2021/07/11 02:24:06;;;;;;;2.85;1.30;;;;;;;;;;5071621;28;20052;-70
2021/07/11 02:26:35;;;;;;;3.47;1.40;;;;;;;;;;5052898;28;20049;-70
2021/07/11 02:29:01;;;;;;;1.58;0.98;;;;;;;;;;5071970;28;20056;-70
2021/07/11 02:31:29;;;;;;;4.78;1.40;;;;;;;;;;5071201;28;20050;-70
2021/07/11 02:33:56;;;;;;;2.05;1.08;;;;;;;;;;5071869;28;20255;-70
2021/07/11 02:36:28;;;;;;;1.70;0.95;;;;;;;;;;5070858;28;20079;-70
2021/07/11 02:38:57;;;;;;;1.92;1.10;;;;;;;;;;5071894;28;20045;-70
2021/07/11 02:41:27;;;;;;;3.20;1.35;;;;;;;;;;5071653;28;20106;-70
2021/07/11 02:43:56;;;;;;;2.47;1.00;;;;;;;;;;5071519;28;20513;-70
2021/07/11 02:46:27;;;;;;;2.78;1.00;;;;;;;;;;5071103;28;20048;-70
2021/07/11 02:48:54;;;;;;;2.80;0.93;;;;;;;;;;5071303;28;20457;-70
2021/07/11 02:51:25;;;;;;;2.15;1.02;;;;;;;;;;5071380;28;20052;-70
2021/07/11 02:53:53;;;;;;;4.13;1.23;;;;;;;;;;5071619;28;20059;-69
2021/07/11 02:56:20;;;;;;;2.75;1.10;;;;;;;;;;5071680;28;20050;-70
2021/07/11 02:58:48;;;;;;;1.02;0.80;;;;;;;;;;5071102;28;20676;-70
2021/07/11 03:01:14;;;;;;;1.65;1.10;;;;;;;;;;5071278;28;20413;-70
2021/07/11 03:03:41;;;;;;;1.92;1.08;;;;;;;;;;5071684;28;20063;-70
2021/07/11 03:06:08;;;;;;;1.92;1.10;;;;;;;;;;5071403;28;20048;-70
2021/07/11 03:08:36;;;;;;;4.15;1.30;;;;;;;;;;5071268;28;20040;-70
2021/07/11 03:11:04;;;;;;;1.85;1.13;;;;;;;;;;5071786;28;20541;-70
2021/07/11 03:13:31;;;;;;;1.80;1.10;;;;;;;;;;5071088;28;20063;-70
2021/07/11 03:15:58;;;;;;;2.03;0.90;;;;;;;;;;5071695;28;20052;-70
2021/07/11 03:18:25;;;;;;;1.35;1.00;;;;;;;;;;5071420;28;20136;-70
2021/07/11 03:20:52;;;;;;;3.33;1.20;;;;;;;;;;5070909;28;20412;-70
2021/07/11 03:23:19;;;;;;;1.58;1.33;;;;;;;;;;5053983;28;20056;-70
2021/07/11 03:25:49;;;;;;;1.63;1.02;;;;;;;;;;5051143;28;20095;-70
2021/07/11 03:28:16;;;;;;;2.55;1.17;;;;;;;;;;5068325;28;20520;-70
2021/07/11 03:30:44;;;;;;;2.97;1.17;;;;;;;;;;5070969;28;20396;-70
2021/07/11 03:33:11;;;;;;;2.65;1.10;;;;;;;;;;5071007;28;20057;-70
2021/07/11 03:35:39;;;;;;;1.98;1.15;;;;;;;;;;5051132;28;20049;-70
2021/07/11 03:38:06;;;;;;;2.22;0.80;;;;;;;;;;5051062;28;20474;-69
2021/07/11 03:40:42;;;;;;;1.95;0.95;;;;;;;;;;5054389;28;20051;-69
2021/07/11 03:43:11;;;;;;;2.13;1.10;;;;;;;;;;5071346;28;20048;-69
2021/07/11 03:45:40;;;;;;;2.67;1.00;;;;;;;;;;5070902;28;20059;-69
2021/07/11 03:48:09;;;;;;;1.95;0.90;;;;;;;;;;5072684;28;20702;-69
2021/07/11 03:50:37;;;;;;;1.17;0.80;;;;;;;;;;5074343;28;20049;-69
2021/07/11 03:53:06;;;;;;;2.38;0.93;;;;;;;;;;5074505;28;20052;-69
2021/07/11 03:55:34;;;;;;;2.78;1.00;;;;;;;;;;5074502;28;20048;-69
2021/07/11 03:58:01;;;;;;;3.13;0.95;;;;;;;;;;5074307;28;20053;-69
2021/07/11 04:00:30;;;;;;;5.57;1.90;;;;;;;;;;5074676;28;20045;-69
2021/07/11 04:02:57;;;;;;;1.50;0.95;;;;;;;;;;5074554;28;20409;-69
2021/07/11 04:05:27;;;;;;;2.00;1.00;;;;;;;;;;5074361;28;20045;-69
2021/07/11 04:07:54;;;;;;;1.73;0.80;;;;;;;;;;5074021;28;20056;-69
2021/07/11 04:10:24;;;;;;;6.63;0.93;;;;;;;;;;5074291;28;20041;-69
2021/07/11 04:12:51;;;;;;;2.05;1.00;;;;;;;;;;5074214;28;20056;-69
2021/07/11 04:15:17;;;;;;;2.88;1.00;;;;;;;;;;5074321;28;20052;-69
2021/07/11 04:17:47;;;;;;;1.33;0.75;;;;;;;;;;5074058;28;20390;-69
2021/07/11 04:20:14;;;;;;;1.45;0.90;;;;;;;;;;5074536;28;20057;-69
2021/07/11 04:22:42;;;;;;;1.90;0.80;;;;;;;;;;5074109;28;20059;-68
2021/07/11 04:25:11;;;;;;;2.60;0.98;;;;;;;;;;5074107;28;20044;-69
2021/07/11 04:27:38;;;;;;;3.53;1.10;;;;;;;;;;5073964;28;20048;-69
2021/07/11 04:30:06;;;;;;;2.53;1.08;;;;;;;;;;5073967;28;20044;-69
2021/07/11 04:32:34;;;;;;;2.05;1.00;;;;;;;;;;5073844;28;20052;-69
2021/07/11 04:35:02;;;;;;;2.35;0.85;;;;;;;;;;5073902;28;20056;-69
2021/07/11 04:37:28;;;;;;;1.88;0.80;;;;;;;;;;5073923;28;20059;-68
2021/07/11 04:39:55;;;;;;;2.03;1.13;;;;;;;;;;5073765;28;20055;-69
2021/07/11 04:42:21;;;;;;;2.17;1.00;;;;;;;;;;5073458;28;20063;-68
2021/07/11 04:44:48;;;;;;;1.17;0.80;;;;;;;;;;5073110;28;20401;-69
2021/07/11 04:47:14;;;;;;;1.63;0.90;;;;;;;;;;5073211;28;20044;-69
2021/07/11 04:49:41;;;;;;;1.10;0.80;;;;;;;;;;5073493;28;20048;-69
2021/07/11 04:52:09;;;;;;;2.03;0.80;;;;;;;;;;5073256;28;20051;-69
2021/07/11 04:54:36;;;;;;;1.23;0.85;;;;;;;;;;5073387;28;20056;-68
2021/07/11 04:57:04;;;;;;;2.47;0.85;;;;;;;;;;5072934;28;20374;-68
2021/07/11 04:59:31;;;;;;;2.05;0.63;;;;;;;;;;5072416;28;20048;-68
2021/07/11 05:01:57;;;;;;;2.80;0.90;;;;;;;;;;5072490;28;20102;-68
2021/07/11 05:04:24;;;;;;;2.17;1.10;;;;;;;;;;5073451;28;20401;-68
2021/07/11 05:06:50;;;;;;;1.45;0.82;;;;;;;;;;5073125;28;20049;-68
2021/07/11 05:09:18;;;;;;;2.38;1.17;;;;;;;;;;5072507;28;20049;-68
2021/07/11 05:11:45;;;;;;;2.00;1.23;;;;;;;;;;5072820;28;20051;-68
2021/07/11 05:14:11;;;;;;;1.90;1.10;;;;;;;;;;5072973;28;20461;-68
2021/07/11 05:16:38;;;;;;;2.58;0.80;;;;;;;;;;5072871;28;20048;-68
2021/07/11 05:19:04;;;;;;;2.65;0.90;;;;;;;;;;5072975;28;20481;-68
2021/07/11 05:21:31;;;;;;;1.35;0.80;;;;;;;;;;5072684;28;20056;-68
2021/07/11 05:23:58;;;;;;;0.82;0.70;;;;;;;;;;5072819;28;20052;-68
2021/07/11 05:26:26;;;;;;;0.90;0.60;;;;;;;;;;5072596;28;20135;-68
2021/07/11 05:28:53;;;;;;;2.83;1.10;;;;;;;;;;5072410;28;20388;-68
2021/07/11 05:31:19;;;;;;;2.80;0.98;;;;;;;;;;5071981;28;20058;-68
2021/07/11 05:33:46;;;;;;;1.52;0.80;;;;;;;;;;5071899;28;20053;-68
2021/07/11 05:36:13;;;;;;;1.10;0.60;;;;;;;;;;5072425;28;20048;-68
2021/07/11 05:38:40;;;;;;;1.60;0.70;;;;;;;;;;5072288;28;20048;-68
2021/07/11 05:41:08;;;;;;;1.05;0.80;;;;;;;;;;5072289;28;20051;-68
2021/07/11 05:43:35;;;;;;;1.88;1.02;;;;;;;;;;5072195;28;20045;-68
2021/07/11 05:46:02;;;;;;;1.20;0.70;;;;;;;;;;5072556;28;20041;-68
2021/07/11 05:48:29;;;;;;;0.95;0.63;;;;;;;;;;5072452;28;20048;-68
2021/07/11 05:50:55;;;;;;;1.30;0.80;;;;;;;;;;5072082;28;20395;-69
2021/07/11 05:53:22;;;;;;;2.72;1.00;;;;;;;;;;5072147;28;20067;-68
2021/07/11 05:55:48;;;;;;;1.95;1.00;;;;;;;;;;5072242;28;20382;-68
2021/07/11 05:58:15;;;;;;;2.25;0.80;;;;;;;;;;5072051;28;20048;-68
2021/07/11 06:00:43;;;;;;;1.63;0.90;;;;;;;;;;5071620;28;20051;-69
2021/07/11 06:03:09;;;;;;;11.30;2.10;;;;;;;;;;5072066;28;20056;-68
2021/07/11 06:05:37;;;;;;;2.67;1.23;;;;;;;;;;5072111;28;20087;-68
2021/07/11 06:08:05;;;;;;;2.70;0.90;;;;;;;;;;5072189;28;20056;-68
2021/07/11 06:10:32;;;;;;;4.68;0.80;;;;;;;;;;5071508;28;20060;-68
2021/07/11 06:12:58;;;;;;;1.83;1.10;;;;;;;;;;5051743;28;20049;-68
2021/07/11 06:15:25;;;;;;;2.03;1.00;;;;;;;;;;5052099;28;20075;-68
2021/07/11 06:17:53;;;;;;;2.47;1.15;;;;;;;;;;5052072;28;20052;-68
2021/07/11 06:20:20;;;;;;;1.98;1.10;;;;;;;;;;5051929;28;20045;-68
2021/07/11 06:22:47;;;;;;;1.65;0.90;;;;;;;;;;5070248;28;20084;-68
2021/07/11 06:25:13;;;;;;;3.53;0.93;;;;;;;;;;5071638;28;20055;-68
2021/07/11 06:27:42;;;;;;;3.35;1.10;;;;;;;;;;5071914;28;20061;-68
2021/07/11 06:30:10;;;;;;;1.45;1.20;;;;;;;;;;5071605;28;20045;-68
2021/07/11 06:32:37;;;;;;;2.83;0.90;;;;;;;;;;5071307;28;20044;-68
2021/07/11 06:35:06;;;;;;;1.90;0.90;;;;;;;;;;5071641;28;20051;-68
2021/07/11 06:37:33;;;;;;;1.75;1.00;;;;;;;;;;5071657;28;20059;-68
2021/07/11 06:39:59;;;;;;;3.22;1.20;;;;;;;;;;5071567;28;20477;-68
2021/07/11 06:42:26;;;;;;;1.33;0.93;;;;;;;;;;5071657;28;20048;-68
2021/07/11 06:44:52;;;;;;;1.90;1.17;;;;;;;;;;5071545;28;20044;-68
2021/07/11 06:47:19;;;;;;;2.95;1.25;;;;;;;;;;5071532;28;20409;-68
2021/07/11 06:49:45;;;;;;;2.20;1.00;;;;;;;;;;5071336;28;20045;-68
2021/07/11 06:52:13;;;;;;;3.90;1.13;;;;;;;;;;5071738;28;20075;-68
2021/07/11 06:54:40;;;;;;;2.10;1.27;;;;;;;;;;5071308;28;20059;-68
2021/07/11 06:57:06;;;;;;;2.13;1.10;;;;;;;;;;5071723;28;20067;-68
2021/07/11 06:59:33;;;;;;;2.72;1.55;;;;;;;;;;5071793;28;20505;-68
2021/07/11 07:01:59;;;;;;;2.63;1.52;;;;;;;;;;5071656;28;20397;-68
2021/07/11 07:04:26;;;;;;;2.50;1.50;;;;;;;;;;5071325;28;20095;-68
2021/07/11 07:06:52;;;;;;;5.60;1.73;;;;;;;;;;5071238;28;20048;-68
2021/07/11 07:09:20;;;;;;;3.72;1.67;;;;;;;;;;5071349;28;20052;-68
2021/07/11 07:11:46;;;;;;;3.83;1.40;;;;;;;;;;5071255;28;20053;-68
2021/07/11 07:14:13;;;;;;;2.35;1.30;;;;;;;;;;5071373;28;20052;-68
2021/07/11 07:16:39;;;;;;;4.68;1.40;;;;;;;;;;5071457;28;20072;-68
2021/07/11 07:19:06;;;;;;;2.78;1.40;;;;;;;;;;5071142;28;20152;-68
2021/07/11 07:21:33;;;;;;;1.83;1.10;;;;;;;;;;5071156;28;20052;-68
2021/07/11 07:23:59;;;;;;;4.10;1.30;;;;;;;;;;5074222;28;20051;-68
2021/07/11 07:26:27;;;;;;;4.30;1.50;;;;;;;;;;5075065;28;20063;-68
2021/07/11 07:28:54;;;;;;;5.18;1.30;;;;;;;;;;5074873;28;20052;-68
2021/07/11 07:31:21;;;;;;;2.70;1.40;;;;;;;;;;5074015;28;20041;-69
2021/07/11 07:33:47;;;;;;;4.85;1.38;;;;;;;;;;5074572;28;20048;-68
2021/07/11 07:36:14;;;;;;;2.03;1.33;;;;;;;;;;5074850;28;20052;-68
2021/07/11 07:38:40;;;;;;;5.88;2.20;;;;;;;;;;5074833;28;20066;-68
2021/07/11 07:41:07;;;;;;;4.50;1.50;;;;;;;;;;5074935;28;20049;-68
2021/07/11 07:43:34;;;;;;;2.88;1.27;;;;;;;;;;5074699;28;20405;-68
2021/07/11 07:46:01;;;;;;;2.50;1.25;;;;;;;;;;5074371;28;20044;-69
2021/07/11 07:48:27;;;;;;;2.30;1.17;;;;;;;;;;5073890;28;20041;-69
2021/07/11 07:50:54;;;;;;;2.97;1.30;;;;;;;;;;5074274;28;20044;-68
2021/07/11 07:53:20;;;;;;;2.85;1.27;;;;;;;;;;5074373;28;20052;-68
2021/07/11 07:55:47;;;;;;;3.15;1.30;;;;;;;;;;5074137;28;20048;-68
2021/07/11 07:58:13;;;;;;;3.10;1.05;;;;;;;;;;5074369;28;20400;-68
2021/07/11 08:00:42;;;;;;;1.80;1.10;;;;;;;;;;5073706;28;20044;-67
2021/07/11 08:03:08;;;;;;;3.58;1.58;;;;;;;;;;5066072;28;20072;-67
2021/07/11 08:05:35;;;;;;;2.53;1.30;;;;;;;;;;5072429;28;20052;-67
2021/07/11 08:08:02;;;;;;;2.38;1.40;;;;;;;;;;5069532;28;20386;-68
2021/07/11 08:10:28;;;;;;;3.05;1.35;;;;;;;;;;5073136;28;20052;-67
2021/07/11 08:12:54;;;;;;;2.58;1.20;;;;;;;;;;5073258;28;20049;-67
2021/07/11 08:15:21;;;;;;;2.85;1.48;;;;;;;;;;5071958;28;20056;-67
2021/07/11 08:17:50;;;;;;;2.22;1.40;;;;;;;;;;5072914;28;20036;-68
2021/07/11 08:20:18;;;;;;;4.60;1.58;;;;;;;;;;5073854;28;20529;-67
2021/07/11 08:22:45;;;;;;;2.97;1.30;;;;;;;;;;5073524;28;20055;-67
2021/07/11 08:25:13;;;;;;;2.03;1.25;;;;;;;;;;5073846;28;20059;-68
2021/07/11 08:27:40;;;;;;;2.33;1.40;;;;;;;;;;5073477;28;20045;-67
2021/07/11 08:30:09;;;;;;;3.53;1.40;;;;;;;;;;5070735;28;20051;-67
2021/07/11 08:32:36;;;;;;;3.65;1.10;;;;;;;;;;5073223;28;20055;-68
2021/07/11 08:35:05;;;;;;;2.40;1.52;;;;;;;;;;5072447;28;20044;-67
2021/07/11 08:37:31;;;;;;;3.33;1.83;;;;;;;;;;5073283;28;20062;-67
2021/07/11 08:39:58;;;;;;;2.50;1.58;;;;;;;;;;5073429;28;20408;-68
2021/07/11 08:42:25;;;;;;;2.85;1.60;;;;;;;;;;5073572;28;20045;-68
2021/07/11 08:44:52;;;;;;;2.92;1.15;;;;;;;;;;5072740;28;20059;-68
2021/07/11 08:47:19;;;;;;;2.22;1.52;;;;;;;;;;5073038;28;20048;-68
2021/07/11 08:49:46;;;;;;;2.67;1.60;;;;;;;;;;5073122;28;20048;-68
2021/07/11 08:52:15;;;;;;;3.33;1.40;;;;;;;;;;5072903;28;20047;-68
2021/07/11 08:54:42;;;;;;;3.22;1.73;;;;;;;;;;5072713;28;20071;-68
2021/07/11 08:57:10;;;;;;;10.38;1.98;;;;;;;;;;5072326;28;20374;-69
2021/07/11 08:59:37;;;;;;;3.80;1.83;;;;;;;;;;5073100;28;20425;-68
2021/07/11 09:02:06;;;;;;;2.60;1.67;;;;;;;;;;5073473;28;20409;-69
2021/07/11 09:04:38;;;;;;;3.03;1.70;;;;;;;;;;5072932;28;20060;-69
2021/07/11 09:07:05;;;;;;;2.95;1.60;;;;;;;;;;5071883;28;20040;-68
2021/07/11 09:09:35;;;;;;;2.28;1.52;;;;;;;;;;5071403;28;20561;-68
2021/07/11 09:12:05;;;;;;;3.10;1.70;;;;;;;;;;5068288;28;20043;-69
2021/07/11 09:14:35;;;;;;;3.97;1.92;;;;;;;;;;5071163;28;20127;-69
2021/07/11 09:17:02;;;;;;;2.58;1.63;;;;;;;;;;5068917;28;20075;-69
2021/07/11 09:19:30;;;;;;;2.83;1.60;;;;;;;;;;5071329;28;20048;-69
2021/07/11 09:21:59;;;;;;;4.57;1.45;;;;;;;;;;5071617;28;20740;-69
2021/07/11 09:24:26;;;;;;;3.35;1.55;;;;;;;;;;5071978;28;20052;-69
2021/07/11 09:26:56;;;;;;;2.75;1.58;;;;;;;;;;5072149;28;20047;-69
2021/07/11 09:29:27;;;;;;;2.85;1.48;;;;;;;;;;5069983;28;20056;-69
2021/07/11 09:31:53;;;;;;;2.30;1.67;;;;;;;;;;5072217;28;20382;-69
2021/07/11 09:34:25;;;;;;;2.58;1.52;;;;;;;;;;5072026;28;20049;-69
2021/07/11 09:37:07;;;;;;;2.30;1.60;;;;;;;;;;5071997;28;20055;-69
2021/07/11 09:39:34;;;;;;;1.70;1.20;;;;;;;;;;5072137;28;20417;-69
2021/07/11 09:42:05;;;;;;;2.60;1.38;;;;;;;;;;5072279;28;20385;-69
2021/07/11 09:44:42;;;;;;;3.17;1.67;;;;;;;;;;5070018;28;20055;-69
2021/07/11 09:47:17;;;;;;;4.65;1.70;;;;;;;;;;5066480;28;20155;-69
2021/07/11 09:49:44;;;;;;;3.50;1.70;;;;;;;;;;5071935;28;20044;-69
2021/07/11 09:52:10;;;;;;;3.30;1.30;;;;;;;;;;5071938;28;20477;-69
2021/07/11 09:54:37;;;;;;;2.88;1.50;;;;;;;;;;5071924;28;20500;-69
2021/07/11 09:57:10;;;;;;;2.20;1.30;;;;;;;;;;5071734;28;20053;-69
2021/07/11 09:59:37;;;;;;;4.03;1.58;;;;;;;;;;5071687;28;20047;-68
2021/07/11 10:02:04;;;;;;;2.97;1.75;;;;;;;;;;5071711;28;20041;-69
2021/07/11 10:04:30;;;;;;;2.53;1.60;;;;;;;;;;5071171;28;20045;-69
2021/07/11 10:06:57;;;;;;;2.53;1.60;;;;;;;;;;5071592;28;20044;-69
2021/07/11 10:09:24;;;;;;;4.07;1.70;;;;;;;;;;5071923;28;20060;-69
2021/07/11 10:11:50;;;;;;;2.67;1.70;;;;;;;;;;5070770;28;20041;-69
2021/07/11 10:14:18;;;;;;;2.70;1.35;;;;;;;;;;5063843;28;20403;-69
2021/07/11 10:16:45;;;;;;;3.22;1.80;;;;;;;;;;5067049;28;20060;-69
2021/07/11 10:19:13;;;;;;;2.38;1.48;;;;;;;;;;5071652;28;20056;-69
2021/07/11 10:21:44;;;;;;;4.30;1.63;;;;;;;;;;5071131;28;20458;-69
2021/07/11 10:24:17;;;;;;;2.65;1.58;;;;;;;;;;5065509;28;20046;-69
2021/07/11 10:26:43;;;;;;;3.30;1.70;;;;;;;;;;5059612;28;20044;-69
2021/07/11 10:29:12;;;;;;;3.40;1.77;;;;;;;;;;5055703;28;20044;-69
2021/07/11 10:31:44;;;;;;;2.50;1.70;;;;;;;;;;5068754;28;20098;-69
2021/07/11 10:34:10;;;;;;;2.70;1.60;;;;;;;;;;5051599;28;20048;-69
2021/07/11 10:36:39;;;;;;;4.45;1.85;;;;;;;;;;5058125;28;20055;-69
2021/07/11 10:39:09;;;;;;;5.20;2.25;;;;;;;;;;5071010;28;20059;-69
2021/07/11 10:41:47;;;;;;;3.13;1.70;;;;;;;;;;5069310;28;20754;-69
2021/07/11 10:44:18;;;;;;;3.40;1.77;;;;;;;;;;5071184;28;20500;-69
2021/07/11 10:46:52;;;;;;;3.65;1.70;;;;;;;;;;5064849;28;20048;-69
2021/07/11 10:49:22;;;;;;;4.65;1.77;;;;;;;;;;5063136;28;20496;-69
2021/07/11 10:51:50;;;;;;;1.95;1.38;;;;;;;;;;5071256;28;20045;-69
2021/07/11 10:54:21;;;;;;;1.98;1.50;;;;;;;;;;5071464;28;20064;-69
2021/07/11 10:56:48;;;;;;;2.13;1.50;;;;;;;;;;5070895;28;20053;-69
2021/07/11 10:59:25;;;;;;;4.35;2.20;;;;;;;;;;5074384;28;20397;-69
2021/07/11 11:01:53;;;;;;;3.17;1.52;;;;;;;;;;5073806;28;20099;-70
2021/07/11 11:04:20;;;;;;;3.55;1.80;;;;;;;;;;5074940;28;20048;-70
2021/07/11 11:06:47;;;;;;;3.53;1.80;;;;;;;;;;5069216;28;20045;-70
2021/07/11 11:09:13;;;;;;;2.85;1.58;;;;;;;;;;5074325;28;20517;-70
2021/07/11 11:11:40;;;;;;;2.58;1.38;;;;;;;;;;5074053;28;20476;-70
2021/07/11 11:14:07;;;;;;;3.08;1.50;;;;;;;;;;5074974;28;20683;-70
2021/07/11 11:16:45;;;;;;;2.25;1.45;;;;;;;;;;5075012;28;20052;-70
2021/07/11 11:19:15;;;;;;;2.83;1.42;;;;;;;;;;5066503;28;20435;-71
2021/07/11 11:21:42;;;;;;;2.45;1.55;;;;;;;;;;5073007;28;20048;-70
2021/07/11 11:24:09;;;;;;;2.05;1.42;;;;;;;;;;5074489;28;20055;-70
2021/07/11 11:26:35;;;;;;;2.10;1.50;;;;;;;;;;5075597;28;20472;-70
2021/07/11 11:29:03;;;;;;;1.77;1.10;;;;;;;;;;5075222;28;20052;-70
2021/07/11 11:31:30;;;;;;;2.90;1.40;;;;;;;;;;5075654;28;20366;-69
2021/07/11 11:34:04;;;;;;;3.47;1.20;;;;;;;;;;5075060;28;20103;-70
2021/07/11 11:36:36;;;;;;;2.22;1.50;;;;;;;;;;5074465;28;20052;-69
2021/07/11 11:39:07;;;;;;;2.60;1.52;;;;;;;;;;5073131;28;20386;-70
2021/07/11 11:41:34;;;;;;;2.70;1.40;;;;;;;;;;5075561;28;20113;-69
2021/07/11 11:44:12;;;;;;;1.92;1.42;;;;;;;;;;5075230;28;20045;-69
2021/07/11 11:46:39;;;;;;;2.40;1.60;;;;;;;;;;5075120;28;20469;-70
2021/07/11 11:49:07;;;;;;;2.38;1.20;;;;;;;;;;5066118;28;20693;-70
2021/07/11 11:51:35;;;;;;;1.98;1.30;;;;;;;;;;5072361;28;20040;-70
2021/07/11 11:54:02;;;;;;;3.70;1.80;;;;;;;;;;5073270;28;20511;-69
2021/07/11 11:56:28;;;;;;;7.13;2.20;;;;;;;;;;5073061;28;20516;-70
2021/07/11 11:59:00;;;;;;;5.63;2.40;;;;;;;;;;5074745;28;20053;-70
2021/07/11 12:01:30;;;;;;;5.05;1.98;;;;;;;;;;5074493;28;20049;-70
2021/07/11 12:04:07;;;;;;;4.22;1.95;;;;;;;;;;5074549;28;20056;-72
2021/07/11 12:06:35;;;;;;;2.10;1.27;;;;;;;;;;5068497;28;20075;-71
2021/07/11 12:09:02;;;;;;;3.70;1.45;;;;;;;;;;5065442;28;20060;-70
2021/07/11 12:11:28;;;;;;;1.80;0.95;;;;;;;;;;5056329;28;20056;-70
2021/07/11 12:14:04;;;;;;;2.22;1.00;;;;;;;;;;5054711;28;20048;-70
2021/07/11 12:16:31;;;;;;;4.53;2.10;;;;;;;;;;5062385;28;20055;-71
2021/07/11 12:19:01;;;;;;;2.90;1.75;;;;;;;;;;5072341;28;20397;-71
2021/07/11 12:21:29;;;;;;;1.73;1.30;;;;;;;;;;5073380;28;20055;-70
2021/07/11 12:24:02;;;;;;;2.13;1.23;;;;;;;;;;5073101;28;20044;-71
2021/07/11 12:26:29;;;;;;;3.20;1.50;;;;;;;;;;5073276;28;20136;-70
2021/07/11 12:28:56;;;;;;;4.63;1.60;;;;;;;;;;5072842;28;20162;-70
2021/07/11 12:31:24;;;;;;;3.38;1.58;;;;;;;;;;5072787;28;20127;-70
2021/07/11 12:33:56;;;;;;;3.80;2.00;;;;;;;;;;5073109;28;20079;-70
2021/07/11 12:36:23;;;;;;;7.68;2.55;;;;;;;;;;5071456;28;20041;-71
2021/07/11 12:38:49;;;;;;;4.28;1.70;;;;;;;;;;5072493;28;20048;-71
2021/07/11 12:41:17;;;;;;;5.32;1.90;;;;;;;;;;5072607;28;20052;-71
2021/07/11 12:43:48;;;;;;;3.42;2.03;;;;;;;;;;5072755;28;20515;-71
2021/07/11 12:46:17;;;;;;;3.65;1.60;;;;;;;;;;5072127;28;20044;-71
2021/07/11 12:48:45;;;;;;;2.65;1.30;;;;;;;;;;5072486;28;20041;-71
2021/07/11 12:51:17;;;;;;;4.72;1.70;;;;;;;;;;5072633;28;20079;-70
2021/07/11 12:53:44;;;;;;;2.20;1.23;;;;;;;;;;5071757;28;20110;-70
2021/07/11 12:56:14;;;;;;;2.67;1.48;;;;;;;;;;5072388;28;20060;-69
2021/07/11 12:58:43;;;;;;;2.10;1.20;;;;;;;;;;5070062;28;20052;-69
2021/07/11 13:01:11;;;;;;;2.90;1.58;;;;;;;;;;5069696;28;20044;-69
2021/07/11 13:03:38;;;;;;;2.13;1.20;;;;;;;;;;5069916;28;20040;-69
2021/07/11 13:06:04;;;;;;;1.88;1.23;;;;;;;;;;5072258;28;20045;-69
2021/07/11 13:08:31;;;;;;;2.17;1.20;;;;;;;;;;5071464;28;20052;-70
2021/07/11 13:10:58;;;;;;;3.78;1.30;;;;;;;;;;5071974;28;20040;-69
2021/07/11 13:13:24;;;;;;;2.47;1.55;;;;;;;;;;5071065;28;20044;-70
2021/07/11 13:15:52;;;;;;;3.33;1.80;;;;;;;;;;5072200;28;20119;-69
2021/07/11 13:18:19;;;;;;;2.45;1.42;;;;;;;;;;5067388;28;20484;-69
2021/07/11 13:20:45;;;;;;;2.10;1.40;;;;;;;;;;5072880;28;20044;-69
2021/07/11 13:23:14;;;;;;;2.53;1.45;;;;;;;;;;5072743;28;20052;-70
2021/07/11 13:25:42;;;;;;;2.53;1.50;;;;;;;;;;5070224;28;20076;-70
2021/07/11 13:28:09;;;;;;;2.70;1.60;;;;;;;;;;5072378;28;20048;-69
2021/07/11 13:30:35;;;;;;;2.30;1.50;;;;;;;;;;5072678;28;20059;-69
2021/07/11 13:33:04;;;;;;;2.88;1.30;;;;;;;;;;5071918;28;20055;-69
2021/07/11 13:35:31;;;;;;;3.25;1.40;;;;;;;;;;5073127;28;20465;-69
2021/07/11 13:37:57;;;;;;;1.92;1.30;;;;;;;;;;5073462;28;20059;-69
2021/07/11 13:40:24;;;;;;;2.30;1.48;;;;;;;;;;5072716;28;20055;-70
2021/07/11 13:42:51;;;;;;;2.05;1.30;;;;;;;;;;5072167;28;20041;-69
2021/07/11 13:45:19;;;;;;;1.85;1.10;;;;;;;;;;5072127;28;20060;-69
2021/07/11 13:47:45;;;;;;;2.08;1.30;;;;;;;;;;5072640;28;20132;-70
2021/07/11 13:50:15;;;;;;;2.08;1.10;;;;;;;;;;5072361;28;20408;-70
2021/07/11 13:52:42;;;;;;;2.03;1.25;;;;;;;;;;5071589;28;20045;-70
2021/07/11 13:55:09;;;;;;;1.50;1.17;;;;;;;;;;5071828;28;20051;-70
2021/07/11 13:57:36;;;;;;;1.73;1.13;;;;;;;;;;5064508;28;20135;-70
2021/07/11 14:00:05;;;;;;;1.90;1.08;;;;;;;;;;5071204;28;20149;-70
2021/07/11 14:02:32;;;;;;;2.22;1.25;;;;;;;;;;5071125;28;20044;-70
2021/07/11 14:04:59;;;;;;;1.15;0.90;;;;;;;;;;5072188;28;20051;-70
2021/07/11 14:07:26;;;;;;;2.63;1.23;;;;;;;;;;5072172;28;20044;-70
2021/07/11 14:09:53;;;;;;;1.77;1.20;;;;;;;;;;5071802;28;20056;-70
2021/07/11 14:12:19;;;;;;;2.03;1.20;;;;;;;;;;5072202;28;20041;-70
2021/07/11 14:14:46;;;;;;;1.80;1.13;;;;;;;;;;5072844;28;20049;-70
2021/07/11 14:17:13;;;;;;;1.35;1.00;;;;;;;;;;5072380;28;20067;-70
2021/07/11 14:19:39;;;;;;;2.20;1.20;;;;;;;;;;5072568;28;20446;-70
2021/07/11 14:22:06;;;;;;;1.58;1.13;;;;;;;;;;5072746;28;20647;-70
2021/07/11 14:24:34;;;;;;;1.83;1.10;;;;;;;;;;5072067;28;20053;-70
2021/07/11 14:27:00;;;;;;;3.55;1.52;;;;;;;;;;5072595;28;20073;-70
2021/07/11 14:29:27;;;;;;;2.10;1.42;;;;;;;;;;5072350;28;20071;-70
2021/07/11 14:31:54;;;;;;;5.35;1.83;;;;;;;;;;5071414;28;20047;-70
2021/07/11 14:34:21;;;;;;;2.03;1.27;;;;;;;;;;5071911;28;20057;-69
2021/07/11 14:36:47;;;;;;;2.42;1.52;;;;;;;;;;5072027;28;20055;-70
2021/07/11 14:39:14;;;;;;;2.20;1.52;;;;;;;;;;5072119;28;20393;-70
2021/07/11 14:41:42;;;;;;;2.15;1.30;;;;;;;;;;5072180;28;20480;-70
2021/07/11 14:44:10;;;;;;;2.28;1.48;;;;;;;;;;5072047;28;20055;-70
2021/07/11 14:46:36;;;;;;;2.67;1.55;;;;;;;;;;5072045;28;20056;-70